sensor_id;sensor_type;location;lat;lon;timestamp;pressure;altitude;pressure_sealevel;temperature;humidity
58473;BME280;44775;51.564;5.460;2022-12-18T00:01:18;102558.72;;;-7.35;100.00
58473;BME280;44775;51.564;5.460;2022-12-18T00:03:44;102570.00;;;-7.38;100.00
58473;BME280;44775;51.564;5.460;2022-12-18T00:06:10;102566.56;;;-7.41;100.00
58473;BME280;44775;51.564;5.460;2022-12-18T00:08:36;102557.09;;;-7.51;100.00
58473;BME280;44775;51.564;5.460;2022-12-18T00:11:06;102562.25;;;-7.42;100.00
58473;BME280;44775;51.564;5.460;2022-12-18T00:13:33;102570.88;;;-7.40;100.00
58473;BME280;44775;51.564;5.460;2022-12-18T00:16:02;102565.72;;;-7.46;100.00
58473;BME280;44775;51.564;5.460;2022-12-18T00:18:28;102549.31;;;-7.53;100.00
58473;BME280;44775;51.564;5.460;2022-12-18T00:20:53;102541.56;;;-7.57;100.00
58473;BME280;44775;51.564;5.460;2022-12-18T00:23:19;102535.56;;;-7.64;100.00
58473;BME280;44775;51.564;5.460;2022-12-18T00:25:44;102528.66;;;-7.65;100.00
58473;BME280;44775;51.564;5.460;2022-12-18T00:28:10;102527.78;;;-7.64;100.00
58473;BME280;44775;51.564;5.460;2022-12-18T00:30:35;102520.03;;;-7.70;100.00
58473;BME280;44775;51.564;5.460;2022-12-18T00:33:01;102511.41;;;-7.77;100.00
58473;BME280;44775;51.564;5.460;2022-12-18T00:35:26;102524.38;;;-7.72;100.00
58473;BME280;44775;51.564;5.460;2022-12-18T00:37:51;102519.19;;;-7.74;100.00
58473;BME280;44775;51.564;5.460;2022-12-18T00:40:17;102517.47;;;-7.76;100.00
58473;BME280;44775;51.564;5.460;2022-12-18T00:42:42;102502.84;;;-7.85;100.00
58473;BME280;44775;51.564;5.460;2022-12-18T00:45:29;102522.63;;;-7.73;100.00
58473;BME280;44775;51.564;5.460;2022-12-18T00:47:55;102519.25;;;-7.81;100.00
58473;BME280;44775;51.564;5.460;2022-12-18T00:50:22;102518.47;;;-7.96;100.00
58473;BME280;44775;51.564;5.460;2022-12-18T00:52:48;102515.88;;;-7.94;100.00
58473;BME280;44775;51.564;5.460;2022-12-18T00:55:14;102517.63;;;-8.01;100.00
58473;BME280;44775;51.564;5.460;2022-12-18T00:57:39;102502.09;;;-8.04;100.00
58473;BME280;44775;51.564;5.460;2022-12-18T01:00:07;102503.81;;;-8.04;100.00
58473;BME280;44775;51.564;5.460;2022-12-18T01:02:33;102517.72;;;-8.15;100.00
58473;BME280;44775;51.564;5.460;2022-12-18T01:04:58;102534.16;;;-8.17;100.00
58473;BME280;44775;51.564;5.460;2022-12-18T01:07:24;102533.31;;;-8.16;100.00
58473;BME280;44775;51.564;5.460;2022-12-18T01:09:49;102517.78;;;-8.27;100.00
58473;BME280;44775;51.564;5.460;2022-12-18T01:12:14;102531.56;;;-8.16;100.00
58473;BME280;44775;51.564;5.460;2022-12-18T01:14:40;102543.66;;;-8.18;100.00
58473;BME280;44775;51.564;5.460;2022-12-18T01:17:05;102536.72;;;-8.14;100.00
58473;BME280;44775;51.564;5.460;2022-12-18T01:19:31;102530.69;;;-8.13;100.00
58473;BME280;44775;51.564;5.460;2022-12-18T01:21:57;102550.56;;;-8.14;100.00
58473;BME280;44775;51.564;5.460;2022-12-18T01:24:23;102552.28;;;-8.11;100.00
58473;BME280;44775;51.564;5.460;2022-12-18T01:26:48;102539.31;;;-8.14;100.00
58473;BME280;44775;51.564;5.460;2022-12-18T01:29:14;102534.16;;;-8.17;100.00
58473;BME280;44775;51.564;5.460;2022-12-18T01:31:39;102541.03;;;-8.10;100.00
58473;BME280;44775;51.564;5.460;2022-12-18T01:34:05;102540.16;;;-8.11;100.00
58473;BME280;44775;51.564;5.460;2022-12-18T01:36:36;102538.50;;;-8.16;100.00
58473;BME280;44775;51.564;5.460;2022-12-18T01:39:07;102530.75;;;-8.25;100.00
58473;BME280;44775;51.564;5.460;2022-12-18T01:41:34;102517.78;;;-8.28;100.00
58473;BME280;44775;51.564;5.460;2022-12-18T01:47:21;102529.91;;;-8.29;100.00
58473;BME280;44775;51.564;5.460;2022-12-18T01:49:48;102510.91;;;-8.33;100.00
58473;BME280;44775;51.564;5.460;2022-12-18T01:52:15;102523.84;;;-8.26;100.00
58473;BME280;44775;51.564;5.460;2022-12-18T01:54:42;102530.69;;;-8.18;100.00
58473;BME280;44775;51.564;5.460;2022-12-18T01:57:07;102521.19;;;-8.17;100.00
58473;BME280;44775;51.564;5.460;2022-12-18T01:59:33;102522.03;;;-8.17;100.00
58473;BME280;44775;51.564;5.460;2022-12-18T02:02:01;102528.91;;;-8.07;100.00
58473;BME280;44775;51.564;5.460;2022-12-18T02:04:27;102522.88;;;-8.10;100.00
58473;BME280;44775;51.564;5.460;2022-12-18T02:09:40;102523.84;;;-8.28;100.00
58473;BME280;44775;51.564;5.460;2022-12-18T02:17:21;102512.56;;;-8.21;100.00
58473;BME280;44775;51.564;5.460;2022-12-18T02:22:39;102510.00;;;-8.28;100.00
58473;BME280;44775;51.564;5.460;2022-12-18T02:27:47;102510.91;;;-8.37;100.00
58473;BME280;44775;51.564;5.460;2022-12-18T02:30:15;102517.88;;;-8.44;100.00
58473;BME280;44775;51.564;5.460;2022-12-18T02:32:44;102515.34;;;-8.53;100.00
58473;BME280;44775;51.564;5.460;2022-12-18T02:35:15;102519.69;;;-8.53;100.00
58473;BME280;44775;51.564;5.460;2022-12-18T02:37:43;102514.50;;;-8.61;100.00
58473;BME280;44775;51.564;5.460;2022-12-18T02:40:11;102517.94;;;-8.58;100.00
58473;BME280;44775;51.564;5.460;2022-12-18T02:42:37;102506.72;;;-8.58;100.00
58473;BME280;44775;51.564;5.460;2022-12-18T02:45:02;102506.72;;;-8.60;100.00
58473;BME280;44775;51.564;5.460;2022-12-18T02:47:31;102494.66;;;-8.64;100.00
58473;BME280;44775;51.564;5.460;2022-12-18T03:00:16;102489.47;;;-8.71;100.00
58473;BME280;44775;51.564;5.460;2022-12-18T03:02:51;102490.34;;;-8.72;100.00
58473;BME280;44775;51.564;5.460;2022-12-18T03:05:25;102489.50;;;-8.79;100.00
58473;BME280;44775;51.564;5.460;2022-12-18T03:08:06;102496.44;;;-8.83;100.00
58473;BME280;44775;51.564;5.460;2022-12-18T03:10:38;102487.78;;;-8.85;100.00
58473;BME280;44775;51.564;5.460;2022-12-18T03:13:54;102478.28;;;-8.84;100.00
58473;BME280;44775;51.564;5.460;2022-12-18T03:15:55;102474.00;;;-8.84;100.00
58473;BME280;44775;51.564;5.460;2022-12-18T03:18:43;102461.03;;;-8.88;100.00
58473;BME280;44775;51.564;5.460;2022-12-18T03:21:12;102470.53;;;-8.86;100.00
58473;BME280;44775;51.564;5.460;2022-12-18T03:23:48;102473.13;;;-8.86;100.00
58473;BME280;44775;51.564;5.460;2022-12-18T03:26:21;102478.28;;;-8.84;100.00
58473;BME280;44775;51.564;5.460;2022-12-18T03:28:53;102474.84;;;-8.86;100.00
58473;BME280;44775;51.564;5.460;2022-12-18T03:31:23;102480.03;;;-8.88;100.00
58473;BME280;44775;51.564;5.460;2022-12-18T03:34:01;102482.66;;;-8.91;100.00
58473;BME280;44775;51.564;5.460;2022-12-18T03:36:27;102479.19;;;-8.93;100.00
58473;BME280;44775;51.564;5.460;2022-12-18T03:38:58;102479.19;;;-8.96;100.00
58473;BME280;44775;51.564;5.460;2022-12-18T03:41:27;102472.28;;;-8.95;100.00
58473;BME280;44775;51.564;5.460;2022-12-18T03:46:28;102477.47;;;-8.94;100.00
58473;BME280;44775;51.564;5.460;2022-12-18T03:49:08;102474.03;;;-8.96;100.00
58473;BME280;44775;51.564;5.460;2022-12-18T03:51:44;102461.09;;;-9.02;100.00
58473;BME280;44775;51.564;5.460;2022-12-18T03:54:13;102447.28;;;-9.04;100.00
58473;BME280;44775;51.564;5.460;2022-12-18T03:56:42;102448.13;;;-9.02;100.00
58473;BME280;44775;51.564;5.460;2022-12-18T03:59:11;102441.25;;;-9.06;100.00
58473;BME280;44775;51.564;5.460;2022-12-18T04:01:44;102446.41;;;-9.00;100.00
58473;BME280;44775;51.564;5.460;2022-12-18T04:04:12;102438.66;;;-9.06;100.00
58473;BME280;44775;51.564;5.460;2022-12-18T04:06:40;102438.69;;;-9.08;100.00
58473;BME280;44775;51.564;5.460;2022-12-18T04:09:07;102428.28;;;-9.05;100.00
58473;BME280;44775;51.564;5.460;2022-12-18T04:11:32;102427.41;;;-9.05;100.00
58473;BME280;44775;51.564;5.460;2022-12-18T04:13:58;102423.94;;;-9.01;100.00
58473;BME280;44775;51.564;5.460;2022-12-18T04:16:25;102418.78;;;-8.99;100.00
58473;BME280;44775;51.564;5.460;2022-12-18T04:18:51;102426.53;;;-8.93;100.00
58473;BME280;44775;51.564;5.460;2022-12-18T04:21:16;102424.78;;;-8.93;100.00
58473;BME280;44775;51.564;5.460;2022-12-18T04:23:42;102409.28;;;-8.97;100.00
58473;BME280;44775;51.564;5.460;2022-12-18T04:26:07;102410.13;;;-9.01;100.00
58473;BME280;44775;51.564;5.460;2022-12-18T04:28:33;102410.13;;;-8.98;100.00
58473;BME280;44775;51.564;5.460;2022-12-18T04:30:58;102408.41;;;-9.01;100.00
58473;BME280;44775;51.564;5.460;2022-12-18T04:33:24;102418.75;;;-9.01;100.00
58473;BME280;44775;51.564;5.460;2022-12-18T04:35:49;102425.69;;;-9.00;100.00
58473;BME280;44775;51.564;5.460;2022-12-18T04:38:15;102414.47;;;-9.05;100.00
58473;BME280;44775;51.564;5.460;2022-12-18T04:40:40;102423.13;;;-9.09;100.00
58473;BME280;44775;51.564;5.460;2022-12-18T04:43:06;102431.72;;;-9.01;100.00
58473;BME280;44775;51.564;5.460;2022-12-18T04:45:31;102439.50;;;-9.02;100.00
58473;BME280;44775;51.564;5.460;2022-12-18T04:48:00;102435.19;;;-9.05;100.00
58473;BME280;44775;51.564;5.460;2022-12-18T04:50:26;102424.00;;;-9.10;100.00
58473;BME280;44775;51.564;5.460;2022-12-18T04:52:52;102441.25;;;-9.09;100.00
58473;BME280;44775;51.564;5.460;2022-12-18T04:55:17;102449.88;;;-9.02;100.00
58473;BME280;44775;51.564;5.460;2022-12-18T04:57:42;102454.19;;;-9.09;100.00
58473;BME280;44775;51.564;5.460;2022-12-18T05:00:09;102439.56;;;-9.29;100.00
58473;BME280;44775;51.564;5.460;2022-12-18T05:02:35;102458.56;;;-9.27;100.00
58473;BME280;44775;51.564;5.460;2022-12-18T05:05:00;102462.03;;;-9.28;100.00
58473;BME280;44775;51.564;5.460;2022-12-18T05:07:25;102460.28;;;-9.30;100.00
58473;BME280;44775;51.564;5.460;2022-12-18T05:09:51;102461.16;;;-9.27;100.00
58473;BME280;44775;51.564;5.460;2022-12-18T05:12:16;102458.53;;;-9.28;100.00
58473;BME280;44775;51.564;5.460;2022-12-18T05:14:42;102467.19;;;-9.31;100.00
58473;BME280;44775;51.564;5.460;2022-12-18T05:17:07;102454.25;;;-9.37;100.00
58473;BME280;44775;51.564;5.460;2022-12-18T05:19:33;102467.22;;;-9.40;100.00
58473;BME280;44775;51.564;5.460;2022-12-18T05:21:59;102461.16;;;-9.40;100.00
58473;BME280;44775;51.564;5.460;2022-12-18T05:24:24;102459.44;;;-9.31;100.00
58473;BME280;44775;51.564;5.460;2022-12-18T05:26:50;102455.13;;;-9.41;100.00
58473;BME280;44775;51.564;5.460;2022-12-18T05:29:15;102453.38;;;-9.45;100.00
58473;BME280;44775;51.564;5.460;2022-12-18T05:31:41;102452.53;;;-9.38;100.00
58473;BME280;44775;51.564;5.460;2022-12-18T05:34:06;102445.63;;;-9.39;100.00
58473;BME280;44775;51.564;5.460;2022-12-18T05:36:32;102450.81;;;-9.34;100.00
58473;BME280;44775;51.564;5.460;2022-12-18T05:38:57;102454.25;;;-9.32;100.00
58473;BME280;44775;51.564;5.460;2022-12-18T05:41:23;102446.50;;;-9.31;100.00
58473;BME280;44775;51.564;5.460;2022-12-18T05:43:48;102451.66;;;-9.31;100.00
58473;BME280;44775;51.564;5.460;2022-12-18T05:46:16;102449.91;;;-9.29;100.00
58473;BME280;44775;51.564;5.460;2022-12-18T05:48:45;102430.09;;;-9.33;100.00
58473;BME280;44775;51.564;5.460;2022-12-18T05:51:13;102433.53;;;-9.24;100.00
58473;BME280;44775;51.564;5.460;2022-12-18T05:53:40;102427.47;;;-9.14;100.00
58473;BME280;44775;51.564;5.460;2022-12-18T05:56:08;102427.44;;;-9.10;100.00
58473;BME280;44775;51.564;5.460;2022-12-18T05:58:34;102426.59;;;-9.07;100.00
58473;BME280;44775;51.564;5.460;2022-12-18T06:01:24;102424.00;;;-9.07;100.00
58473;BME280;44775;51.564;5.460;2022-12-18T06:03:49;102432.59;;;-9.11;100.00
58473;BME280;44775;51.564;5.460;2022-12-18T06:06:24;102425.72;;;-9.15;100.00
58473;BME280;44775;51.564;5.460;2022-12-18T06:08:50;102421.41;;;-9.18;100.00
58473;BME280;44775;51.564;5.460;2022-12-18T06:11:18;102422.25;;;-9.07;100.00
58473;BME280;44775;51.564;5.460;2022-12-18T06:13:45;102419.66;;;-9.04;100.00
58473;BME280;44775;51.564;5.460;2022-12-18T06:16:11;102420.53;;;-9.09;100.00
58473;BME280;44775;51.564;5.460;2022-12-18T06:18:37;102417.06;;;-9.08;100.00
58473;BME280;44775;51.564;5.460;2022-12-18T06:21:02;102424.81;;;-9.02;100.00
58473;BME280;44775;51.564;5.460;2022-12-18T06:23:28;102426.53;;;-8.99;100.00
58473;BME280;44775;51.564;5.460;2022-12-18T06:25:54;102436.91;;;-8.93;100.00
58473;BME280;44775;51.564;5.460;2022-12-18T06:28:19;102441.22;;;-8.94;100.00
58473;BME280;44775;51.564;5.460;2022-12-18T06:30:46;102433.44;;;-8.92;100.00
58473;BME280;44775;51.564;5.460;2022-12-18T06:33:12;102435.13;;;-8.91;100.00
58473;BME280;44775;51.564;5.460;2022-12-18T06:35:37;102423.09;;;-9.03;100.00
58473;BME280;44775;51.564;5.460;2022-12-18T06:38:03;102430.91;;;-9.08;100.00
58473;BME280;44775;51.564;5.460;2022-12-18T06:40:29;102418.84;;;-9.16;100.00
58473;BME280;44775;51.564;5.460;2022-12-18T06:42:55;102417.13;;;-9.17;100.00
58473;BME280;44775;51.564;5.460;2022-12-18T06:45:21;102417.97;;;-9.20;100.00
58473;BME280;44775;51.564;5.460;2022-12-18T06:47:46;102409.34;;;-9.17;100.00
58473;BME280;44775;51.564;5.460;2022-12-18T06:50:12;102418.81;;;-9.10;100.00
58473;BME280;44775;51.564;5.460;2022-12-18T06:52:38;102411.88;;;-9.05;100.00
58473;BME280;44775;51.564;5.460;2022-12-18T06:55:06;102411.88;;;-9.05;100.00
58473;BME280;44775;51.564;5.460;2022-12-18T06:57:35;102401.50;;;-8.96;100.00
58473;BME280;44775;51.564;5.460;2022-12-18T07:00:00;102408.41;;;-8.98;100.00
58473;BME280;44775;51.564;5.460;2022-12-18T07:02:26;102407.56;;;-9.05;100.00
58473;BME280;44775;51.564;5.460;2022-12-18T07:04:51;102408.44;;;-9.09;100.00
58473;BME280;44775;51.564;5.460;2022-12-18T07:07:17;102421.41;;;-9.10;100.00
58473;BME280;44775;51.564;5.460;2022-12-18T07:09:42;102409.31;;;-9.13;100.00
58473;BME280;44775;51.564;5.460;2022-12-18T07:12:08;102395.50;;;-9.18;100.00
58473;BME280;44775;51.564;5.460;2022-12-18T07:14:33;102395.53;;;-9.22;100.00
58473;BME280;44775;51.564;5.460;2022-12-18T07:16:59;102387.75;;;-9.16;100.00
58473;BME280;44775;51.564;5.460;2022-12-18T07:19:24;102392.91;;;-9.07;100.00
58473;BME280;44775;51.564;5.460;2022-12-18T07:21:50;102388.56;;;-9.02;100.00
58473;BME280;44775;51.564;5.460;2022-12-18T07:24:16;102381.69;;;-9.06;100.00
58473;BME280;44775;51.564;5.460;2022-12-18T07:26:41;102370.50;;;-9.14;100.00
58473;BME280;44775;51.564;5.460;2022-12-18T07:29:07;102355.75;;;-8.98;100.00
58473;BME280;44775;51.564;5.460;2022-12-18T07:31:33;102354.00;;;-8.95;100.00
58473;BME280;44775;51.564;5.460;2022-12-18T07:33:58;102348.72;;;-8.75;100.00
58473;BME280;44775;51.564;5.460;2022-12-18T07:36:24;102353.06;;;-8.85;100.00
58473;BME280;44775;51.564;5.460;2022-12-18T07:38:49;102354.78;;;-8.76;100.00
58473;BME280;44775;51.564;5.460;2022-12-18T07:41:16;102337.50;;;-8.78;100.00
58473;BME280;44775;51.564;5.460;2022-12-18T07:43:42;102341.78;;;-8.74;100.00
58473;BME280;44775;51.564;5.460;2022-12-18T07:46:08;102334.84;;;-8.68;100.00
58473;BME280;44775;51.564;5.460;2022-12-18T07:48:34;102327.84;;;-8.55;100.00
58473;BME280;44775;51.564;5.460;2022-12-18T07:51:01;102320.09;;;-8.58;100.00
58473;BME280;44775;51.564;5.460;2022-12-18T07:53:27;102313.19;;;-8.56;100.00
58473;BME280;44775;51.564;5.460;2022-12-18T07:56:03;102307.94;;;-8.48;100.00
58473;BME280;44775;51.564;5.460;2022-12-18T07:58:30;102290.72;;;-8.56;100.00
58473;BME280;44775;51.564;5.460;2022-12-18T08:01:22;102311.31;;;-8.39;100.00
58473;BME280;44775;51.564;5.460;2022-12-18T08:03:47;102315.56;;;-8.33;100.00
58473;BME280;44775;51.564;5.460;2022-12-18T08:06:13;102320.69;;;-8.25;100.00
58473;BME280;44775;51.564;5.460;2022-12-18T08:08:38;102322.41;;;-8.24;100.00
58473;BME280;44775;51.564;5.460;2022-12-18T08:11:05;102316.28;;;-8.17;100.00
58473;BME280;44775;51.564;5.460;2022-12-18T08:13:31;102313.59;;;-8.07;100.00
58473;BME280;44775;51.564;5.460;2022-12-18T08:16:09;102317.75;;;-7.87;100.00
58473;BME280;44775;51.564;5.460;2022-12-18T08:18:36;102318.59;;;-7.85;100.00
58473;BME280;44775;51.564;5.460;2022-12-18T08:21:13;102321.16;;;-7.84;100.00
58473;BME280;44775;51.564;5.460;2022-12-18T08:23:40;102319.41;;;-7.78;100.00
58473;BME280;44775;51.564;5.460;2022-12-18T08:26:06;102334.81;;;-7.62;100.00
58473;BME280;44775;51.564;5.460;2022-12-18T08:28:31;102337.41;;;-7.62;100.00
58473;BME280;44775;51.564;5.460;2022-12-18T08:30:57;102324.31;;;-7.54;100.00
58473;BME280;44775;51.564;5.460;2022-12-18T08:33:23;102322.56;;;-7.49;100.00
58473;BME280;44775;51.564;5.460;2022-12-18T08:35:48;102317.25;;;-7.43;100.00
58473;BME280;44775;51.564;5.460;2022-12-18T08:38:14;102334.53;;;-7.37;100.00
58473;BME280;44775;51.564;5.460;2022-12-18T08:40:39;102329.31;;;-7.35;100.00
58473;BME280;44775;51.564;5.460;2022-12-18T08:43:04;102318.09;;;-7.39;100.00
58473;BME280;44775;51.564;5.460;2022-12-18T08:45:49;102324.06;;;-7.32;100.00
58473;BME280;44775;51.564;5.460;2022-12-18T08:48:14;102311.00;;;-7.26;100.00
58473;BME280;44775;51.564;5.460;2022-12-18T08:50:40;102308.34;;;-7.20;100.00
58473;BME280;44775;51.564;5.460;2022-12-18T08:53:05;102299.66;;;-7.18;100.00
58473;BME280;44775;51.564;5.460;2022-12-18T08:55:31;102287.56;;;-7.19;100.00
58473;BME280;44775;51.564;5.460;2022-12-18T08:57:56;102293.47;;;-7.09;100.00
58473;BME280;44775;51.564;5.460;2022-12-18T09:00:22;102293.38;;;-7.01;100.00
58473;BME280;44775;51.564;5.460;2022-12-18T09:02:47;102303.63;;;-6.91;100.00
58473;BME280;44775;51.564;5.460;2022-12-18T09:05:13;102294.81;;;-6.82;100.00
58473;BME280;44775;51.564;5.460;2022-12-18T09:07:38;102290.28;;;-6.66;100.00
58473;BME280;44775;51.564;5.460;2022-12-18T09:10:04;102294.41;;;-6.53;100.00
58473;BME280;44775;51.564;5.460;2022-12-18T09:12:30;102314.25;;;-6.49;100.00
58473;BME280;44775;51.564;5.460;2022-12-18T09:14:55;102307.22;;;-6.42;100.00
58473;BME280;44775;51.564;5.460;2022-12-18T09:17:22;102300.19;;;-6.35;100.00
58473;BME280;44775;51.564;5.460;2022-12-18T09:19:47;102318.25;;;-6.26;100.00
58473;BME280;44775;51.564;5.460;2022-12-18T09:22:13;102330.31;;;-6.21;100.00
58473;BME280;44775;51.564;5.460;2022-12-18T09:24:38;102337.84;;;-6.04;100.00
58473;BME280;44775;51.564;5.460;2022-12-18T09:27:04;102332.66;;;-6.05;100.00
58473;BME280;44775;51.564;5.460;2022-12-18T09:29:29;102332.47;;;-5.95;100.00
58473;BME280;44775;51.564;5.460;2022-12-18T09:31:55;102326.16;;;-5.84;100.00
58473;BME280;44775;51.564;5.460;2022-12-18T09:34:20;102327.00;;;-5.82;100.00
58473;BME280;44775;51.564;5.460;2022-12-18T09:36:47;102311.44;;;-5.85;100.00
58473;BME280;44775;51.564;5.460;2022-12-18T09:39:12;102314.75;;;-5.76;100.00
58473;BME280;44775;51.564;5.460;2022-12-18T09:46:49;102297.09;;;-5.60;100.00
58473;BME280;44775;51.564;5.460;2022-12-18T09:49:20;102283.00;;;-5.50;100.00
58473;BME280;44775;51.564;5.460;2022-12-18T09:54:34;102278.97;;;-5.23;100.00
58473;BME280;44775;51.564;5.460;2022-12-18T09:57:02;102270.38;;;-5.28;100.00
58473;BME280;44775;51.564;5.460;2022-12-18T09:59:38;102264.03;;;-5.14;100.00
58473;BME280;44775;51.564;5.460;2022-12-18T10:02:31;102275.06;;;-5.03;100.00
58473;BME280;44775;51.564;5.460;2022-12-18T10:07:53;102282.50;;;-4.86;100.00
58473;BME280;44775;51.564;5.460;2022-12-18T10:10:38;102287.50;;;-4.76;100.00
58473;BME280;44775;51.564;5.460;2022-12-18T10:16:00;102281.69;;;-4.51;100.00
58473;BME280;44775;51.564;5.460;2022-12-18T10:21:28;102277.03;;;-4.38;100.00
58473;BME280;44775;51.564;5.460;2022-12-18T10:24:13;102289.13;;;-4.34;100.00
58473;BME280;44775;51.564;5.460;2022-12-18T10:26:41;102276.88;;;-4.32;100.00
58473;BME280;44775;51.564;5.460;2022-12-18T10:29:12;102271.34;;;-4.20;100.00
58473;BME280;44775;51.564;5.460;2022-12-18T10:31:37;102268.91;;;-4.26;100.00
58473;BME280;44775;51.564;5.460;2022-12-18T10:34:03;102260.19;;;-4.25;100.00
58473;BME280;44775;51.564;5.460;2022-12-18T10:36:28;102256.31;;;-4.10;100.00
58473;BME280;44775;51.564;5.460;2022-12-18T10:41:41;102233.59;;;-4.07;100.00
58473;BME280;44775;51.564;5.460;2022-12-18T10:46:44;102226.00;;;-3.83;100.00
58473;BME280;44775;51.564;5.460;2022-12-18T10:49:27;102231.75;;;-3.72;100.00
58473;BME280;44775;51.564;5.460;2022-12-18T10:52:17;102221.16;;;-3.66;100.00
58473;BME280;44775;51.564;5.460;2022-12-18T10:54:58;102225.28;;;-3.59;100.00
58473;BME280;44775;51.564;5.460;2022-12-18T10:57:30;102217.28;;;-3.52;100.00
58473;BME280;44775;51.564;5.460;2022-12-18T10:59:58;102214.59;;;-3.49;100.00
58473;BME280;44775;51.564;5.460;2022-12-18T11:02:34;102208.19;;;-3.39;100.00
58473;BME280;44775;51.564;5.460;2022-12-18T11:05:00;102197.81;;;-3.42;100.00
58473;BME280;44775;51.564;5.460;2022-12-18T11:07:49;102202.00;;;-3.37;100.00
58473;BME280;44775;51.564;5.460;2022-12-18T11:10:19;102210.78;;;-3.39;100.00
58473;BME280;44775;51.564;5.460;2022-12-18T11:12:46;102205.31;;;-3.30;100.00
58473;BME280;44775;51.564;5.460;2022-12-18T11:15:25;102209.28;;;-3.18;100.00
58473;BME280;44775;51.564;5.460;2022-12-18T11:17:52;102201.84;;;-3.30;100.00
58473;BME280;44775;51.564;5.460;2022-12-18T11:20:36;102209.34;;;-3.20;100.00
58473;BME280;44775;51.564;5.460;2022-12-18T11:23:11;102217.94;;;-3.16;100.00
58473;BME280;44775;51.564;5.460;2022-12-18T11:25:38;102198.75;;;-3.15;100.00
58473;BME280;44775;51.564;5.460;2022-12-18T11:30:47;102181.91;;;-3.06;100.00
58473;BME280;44775;51.564;5.460;2022-12-18T11:33:18;102183.28;;;-2.95;100.00
58473;BME280;44775;51.564;5.460;2022-12-18T11:35:55;102182.41;;;-2.95;100.00
58473;BME280;44775;51.564;5.460;2022-12-18T11:38:23;102189.22;;;-2.90;100.00
58473;BME280;44775;51.564;5.460;2022-12-18T11:41:03;102183.78;;;-2.83;100.00
58473;BME280;44775;51.564;5.460;2022-12-18T11:46:29;102179.41;;;-2.83;100.00
58473;BME280;44775;51.564;5.460;2022-12-18T11:49:11;102180.13;;;-2.78;100.00
58473;BME280;44775;51.564;5.460;2022-12-18T11:51:46;102179.84;;;-2.70;100.00
58473;BME280;44775;51.564;5.460;2022-12-18T11:54:15;102171.88;;;-2.66;100.00
58473;BME280;44775;51.564;5.460;2022-12-18T11:56:48;102171.69;;;-2.61;100.00
58473;BME280;44775;51.564;5.460;2022-12-18T12:02:22;102167.22;;;-2.57;100.00
58473;BME280;44775;51.564;5.460;2022-12-18T12:05:14;102159.47;;;-2.61;100.00
58473;BME280;44775;51.564;5.460;2022-12-18T12:08:02;102160.09;;;-2.52;100.00
58473;BME280;44775;51.564;5.460;2022-12-18T12:10:42;102158.13;;;-2.46;100.00
58473;BME280;44775;51.564;5.460;2022-12-18T12:13:28;102146.78;;;-2.46;100.00
58473;BME280;44775;51.564;5.460;2022-12-18T12:16:14;102132.69;;;-2.42;100.00
58473;BME280;44775;51.564;5.460;2022-12-18T12:23:59;102133.47;;;-2.40;100.00
58473;BME280;44775;51.564;5.460;2022-12-18T12:26:31;102133.34;;;-2.37;100.00
58473;BME280;44775;51.564;5.460;2022-12-18T12:29:45;102123.69;;;-2.35;100.00
58473;BME280;44775;51.564;5.460;2022-12-18T12:38:05;102114.53;;;-2.23;100.00
58473;BME280;44775;51.564;5.460;2022-12-18T12:40:36;102098.03;;;-2.25;100.00
58473;BME280;44775;51.564;5.460;2022-12-18T12:43:12;102104.94;;;-2.23;100.00
58473;BME280;44775;51.564;5.460;2022-12-18T12:46:08;102094.22;;;-2.17;100.00
58473;BME280;44775;51.564;5.460;2022-12-18T12:48:49;102092.41;;;-2.15;100.00
58473;BME280;44775;51.564;5.460;2022-12-18T12:51:41;102074.81;;;-2.11;100.00
58473;BME280;44775;51.564;5.460;2022-12-18T12:54:16;102072.19;;;-2.11;100.00
58473;BME280;44775;51.564;5.460;2022-12-18T12:57:09;102077.94;;;-2.01;100.00
58473;BME280;44775;51.564;5.460;2022-12-18T13:05:18;102072.94;;;-2.07;100.00
58473;BME280;44775;51.564;5.460;2022-12-18T13:07:54;102072.88;;;-2.06;100.00
58473;BME280;44775;51.564;5.460;2022-12-18T13:10:32;102061.44;;;-2.03;100.00
58473;BME280;44775;51.564;5.460;2022-12-18T13:13:07;102060.38;;;-1.99;100.00
58473;BME280;44775;51.564;5.460;2022-12-18T13:15:46;102055.03;;;-1.96;100.00
58473;BME280;44775;51.564;5.460;2022-12-18T13:18:13;102053.22;;;-1.94;100.00
58473;BME280;44775;51.564;5.460;2022-12-18T13:20:51;102046.78;;;-1.85;100.00
58473;BME280;44775;51.564;5.460;2022-12-18T13:23:32;102048.66;;;-1.89;100.00
58473;BME280;44775;51.564;5.460;2022-12-18T13:34:22;102062.97;;;-1.76;100.00
58473;BME280;44775;51.564;5.460;2022-12-18T13:36:48;102058.66;;;-1.77;100.00
58473;BME280;44775;51.564;5.460;2022-12-18T13:41:43;102046.91;;;-1.67;100.00
58473;BME280;44775;51.564;5.460;2022-12-18T13:44:35;102046.91;;;-1.67;100.00
58473;BME280;44775;51.564;5.460;2022-12-18T13:47:03;102047.88;;;-1.69;100.00
58473;BME280;44775;51.564;5.460;2022-12-18T13:49:43;102036.53;;;-1.70;100.00
58473;BME280;44775;51.564;5.460;2022-12-18T13:52:19;102024.25;;;-1.68;100.00
58473;BME280;44775;51.564;5.460;2022-12-18T13:54:50;102015.34;;;-1.63;100.00
58473;BME280;44775;51.564;5.460;2022-12-18T13:57:36;102024.75;;;-1.58;100.00
58473;BME280;44775;51.564;5.460;2022-12-18T14:00:32;102017.34;;;-1.48;100.00
58473;BME280;44775;51.564;5.460;2022-12-18T14:02:58;102015.88;;;-1.55;100.00
58473;BME280;44775;51.564;5.460;2022-12-18T14:05:29;102021.25;;;-1.58;100.00
58473;BME280;44775;51.564;5.460;2022-12-18T14:08:00;102015.03;;;-1.56;100.00
58473;BME280;44775;51.564;5.460;2022-12-18T14:10:27;102021.19;;;-1.57;100.00
58473;BME280;44775;51.564;5.460;2022-12-18T14:12:53;102012.41;;;-1.56;100.00
58473;BME280;44775;51.564;5.460;2022-12-18T14:17:57;102015.09;;;-1.57;100.00
58473;BME280;44775;51.564;5.460;2022-12-18T14:20:25;102015.50;;;-1.46;99.87
58473;BME280;44775;51.564;5.460;2022-12-18T14:22:51;102016.78;;;-1.56;100.00